Greenville, Rhode Island
Current Conditions -  °F | °C
As of 4:35 AM on Friday 24 Oct 2014 (Local Time) from KSFZ Reporting Station
Overcast Overcast  
Wind Chill: 42°   Ceiling: 1000
Heat Index: 48°   Visibility: 10mi
Dew Point: 41°   Wind: 15mph
Humidity: 76%   Direction: 340°NNW
Pressure: 29.66"   Gusts: 20mph
Location:  41.87°N, 71.55°W
Report Text: KSFZ 240835Z 34013G17KT 10SM BKN010 OVC016 09/05 A2966 RMK AO1
Loading
Personal Weather Stations






























Interactive Weather Map
Tropical Storm Tracking
New forecast layout! Learn more

10-Day Weather Forecast

Advertisements
Track Severe Weather on mobile